createdAt,value
2023-04-16T00:00:55.276Z,100807.22
2023-04-16T00:03:21.793Z,100805.31
2023-04-16T00:05:48.212Z,100813.44
2023-04-16T00:08:14.592Z,100803.72
2023-04-16T00:10:41.321Z,100805.63
2023-04-16T00:13:07.636Z,100812.38
2023-04-16T00:15:34.056Z,100811.84
2023-04-16T00:18:00.410Z,100802.63
2023-04-16T00:20:26.785Z,100804.78
2023-04-16T00:22:53.175Z,100799.41
2023-04-16T00:25:19.560Z,100798.59
2023-04-16T00:27:45.869Z,100801.88
2023-04-16T00:30:12.457Z,100801.03
2023-04-16T00:32:38.874Z,100806.75
2023-04-16T00:35:05.738Z,100809.47
2023-04-16T00:37:32.258Z,100806.75
2023-04-16T00:39:58.737Z,100811.34
2023-04-16T00:42:25.049Z,100806.50
2023-04-16T00:44:51.527Z,100807.59
2023-04-16T00:47:19.753Z,100814.88
2023-04-16T00:49:46.643Z,100812.47
2023-04-16T00:52:13.041Z,100814.06
2023-04-16T00:54:39.848Z,100818.97
2023-04-16T00:57:06.229Z,100815.16
2023-04-16T00:59:32.764Z,100824.34
2023-04-16T01:01:59.206Z,100814.63
2023-04-16T01:04:25.735Z,100820.53
2023-04-16T01:06:52.088Z,100819.50
2023-04-16T01:09:18.515Z,100814.06
2023-04-16T01:11:44.839Z,100809.72
2023-04-16T01:14:11.372Z,100821.09
2023-04-16T01:16:37.681Z,100821.63
2023-04-16T01:19:04.010Z,100827.03
2023-04-16T01:21:30.319Z,100831.66
2023-04-16T01:23:56.614Z,100833.56
2023-04-16T01:26:22.997Z,100832.72
2023-04-16T01:28:49.300Z,100839.50
2023-04-16T01:31:15.646Z,100833.03
2023-04-16T01:33:42.011Z,100838.69
2023-04-16T01:36:08.343Z,100838.44
2023-04-16T01:38:34.709Z,100841.94
2023-04-16T01:41:01.067Z,100846.28
2023-04-16T01:43:27.393Z,100844.66
2023-04-16T01:46:12.181Z,100852.78
2023-04-16T01:48:38.586Z,100843.59
2023-04-16T01:51:05.335Z,100847.91
2023-04-16T01:53:31.670Z,100845.47
2023-04-16T01:55:57.962Z,100850.06
2023-04-16T01:58:24.269Z,100851.97
2023-04-16T02:00:50.622Z,100846.56
2023-04-16T02:03:17.087Z,100849.78
2023-04-16T02:05:43.506Z,100848.72
2023-04-16T02:08:09.833Z,100846.56
2023-04-16T02:10:36.149Z,100835.75
2023-04-16T02:13:02.467Z,100838.44
2023-04-16T02:15:28.856Z,100841.44
2023-04-16T02:17:55.174Z,100841.19
2023-04-16T02:20:21.537Z,100851.72
2023-04-16T02:22:47.950Z,100854.16
2023-04-16T02:25:14.313Z,100856.06
2023-04-16T02:27:40.632Z,100856.56
2023-04-16T02:30:07.640Z,100851.44
2023-04-16T02:32:33.947Z,100860.09
2023-04-16T02:35:00.247Z,100861.72
2023-04-16T02:37:26.545Z,100856.56
2023-04-16T02:39:52.859Z,100860.63
2023-04-16T02:42:19.156Z,100862.50
2023-04-16T02:44:45.461Z,100863.88
2023-04-16T02:47:11.752Z,100861.44
2023-04-16T02:49:38.071Z,100865.50
2023-04-16T02:52:04.553Z,100862.78
2023-04-16T02:54:30.845Z,100872.81
2023-04-16T02:56:57.160Z,100881.19
2023-04-16T02:59:23.444Z,100874.16
2023-04-16T03:01:49.923Z,100877.41
2023-04-16T03:04:16.479Z,100876.84
2023-04-16T03:06:42.819Z,100877.94
2023-04-16T03:09:09.413Z,100882.53
2023-04-16T03:11:35.920Z,100888.78
2023-04-16T03:14:02.236Z,100883.09
2023-04-16T03:16:28.545Z,100885.53
2023-04-16T03:18:54.856Z,100880.13
2023-04-16T03:21:21.170Z,100878.22
2023-04-16T03:23:47.479Z,100881.75
2023-04-16T03:26:13.785Z,100889.84
2023-04-16T03:28:40.072Z,100883.09
2023-04-16T03:31:06.442Z,100882.00
2023-04-16T03:33:32.799Z,100884.19
2023-04-16T03:35:59.228Z,100883.91
2023-04-16T03:38:26.003Z,100888.78
2023-04-16T03:40:52.310Z,100890.13
2023-04-16T03:43:18.633Z,100890.41
2023-04-16T03:45:45.648Z,100889.81
2023-04-16T03:48:12.153Z,100883.91
2023-04-16T03:50:38.610Z,100887.16
2023-04-16T03:53:04.931Z,100894.41
2023-04-16T03:55:31.232Z,100893.34
2023-04-16T03:57:57.532Z,100890.38
2023-04-16T04:00:23.852Z,100894.66
2023-04-16T04:02:50.290Z,100901.69
2023-04-16T04:05:16.741Z,100903.84
2023-04-16T04:07:43.044Z,100903.28
2023-04-16T04:10:09.593Z,100904.09
2023-04-16T04:12:35.888Z,100906.00
2023-04-16T04:15:02.205Z,100911.94
2023-04-16T04:17:28.523Z,100921.38
2023-04-16T04:22:26.620Z,100931.94
2023-04-16T04:24:52.937Z,100927.34
2023-04-16T04:27:19.260Z,100928.44
2023-04-16T04:29:45.571Z,100925.16
2023-04-16T04:32:11.885Z,100935.72
2023-04-16T04:34:38.201Z,100928.69
2023-04-16T04:37:04.545Z,100937.06
2023-04-16T04:39:30.861Z,100933.28
2023-04-16T04:41:57.439Z,100939.78
2023-04-16T04:44:23.753Z,100941.88
2023-04-16T04:46:50.035Z,100948.63
2023-04-16T04:49:16.355Z,100943.19
2023-04-16T04:51:42.652Z,100949.69
2023-04-16T04:54:08.957Z,100957.53
2023-04-16T04:56:35.268Z,100950.50
2023-04-16T04:59:01.568Z,100960.03
2023-04-16T05:01:27.946Z,100965.41
2023-04-16T05:03:54.280Z,100962.66
2023-04-16T05:06:20.668Z,100967.28
2023-04-16T05:08:46.970Z,100971.63
2023-04-16T05:11:13.297Z,100972.44
2023-04-16T05:13:39.613Z,100979.47
2023-04-16T05:16:06.438Z,100972.19
2023-04-16T05:18:32.783Z,100976.78
2023-04-16T05:20:59.110Z,100987.53
2023-04-16T05:23:25.431Z,100987.28
2023-04-16T05:25:51.749Z,100992.38
2023-04-16T05:28:18.036Z,100993.44
2023-04-16T05:30:44.409Z,100990.72
2023-04-16T05:33:10.759Z,100998.31
2023-04-16T05:35:37.071Z,100998.34
2023-04-16T05:38:03.486Z,101005.94
2023-04-16T05:40:30.130Z,101009.66
2023-04-16T05:42:56.443Z,101013.44
2023-04-16T05:45:22.735Z,101015.13
2023-04-16T05:47:49.142Z,101013.47
2023-04-16T05:50:15.576Z,101012.63
2023-04-16T05:52:41.888Z,101017.75
2023-04-16T05:55:08.606Z,101030.19
2023-04-16T05:57:34.914Z,101032.91
2023-04-16T06:00:01.218Z,101029.16
2023-04-16T06:02:27.635Z,101024.56
2023-04-16T06:04:54.084Z,101020.19
2023-04-16T06:07:20.401Z,101030.75
2023-04-16T06:09:46.705Z,101031.34
2023-04-16T06:12:13.084Z,101038.31
2023-04-16T06:14:39.392Z,101029.66
2023-04-16T06:17:05.715Z,101036.94
2023-04-16T06:19:32.048Z,101029.66
2023-04-16T06:21:58.356Z,101032.38
2023-04-16T06:24:24.678Z,101028.56
2023-04-16T06:26:51.034Z,101035.38
2023-04-16T06:29:17.362Z,101041.09
2023-04-16T06:31:43.697Z,101046.81
2023-04-16T06:34:10.280Z,101052.03
2023-04-16T06:36:36.578Z,101045.94
2023-04-16T06:39:03.000Z,101054.03
2023-04-16T06:41:29.923Z,101049.81
2023-04-16T06:43:56.227Z,101063.91
2023-04-16T06:46:22.555Z,101054.22
2023-04-16T06:48:49.024Z,101070.44
2023-04-16T06:51:15.364Z,101060.81
2023-04-16T06:53:41.753Z,101067.00
2023-04-16T06:56:08.260Z,101067.03
2023-04-16T06:58:34.580Z,101065.50
2023-04-16T07:01:01.000Z,101063.59
2023-04-16T07:03:27.520Z,101074.06
2023-04-16T07:05:53.991Z,101069.41
2023-04-16T07:08:20.311Z,101072.03
2023-04-16T07:10:46.613Z,101076.44
2023-04-16T07:13:12.934Z,101075.91
2023-04-16T07:15:39.250Z,101077.97
2023-04-16T07:18:05.579Z,101077.41
2023-04-16T07:20:31.933Z,101084.56
2023-04-16T07:22:58.263Z,101083.34
2023-04-16T07:25:24.748Z,101089.44
2023-04-16T07:27:51.041Z,101093.28
2023-04-16T07:30:17.359Z,101094.34
2023-04-16T07:32:43.788Z,101094.94
2023-04-16T07:35:10.121Z,101099.00
2023-04-16T07:37:36.422Z,101093.88
2023-04-16T07:40:02.775Z,101096.59
2023-04-16T07:42:29.081Z,101091.75
2023-04-16T07:44:55.544Z,101101.22
2023-04-16T07:47:21.912Z,101098.22
2023-04-16T07:49:49.059Z,101108.47
2023-04-16T07:52:15.490Z,101106.88
2023-04-16T07:54:41.829Z,101102.59
2023-04-16T07:57:08.138Z,101106.16
2023-04-16T07:59:34.432Z,101106.75
2023-04-16T08:02:00.879Z,101110.25
2023-04-16T08:04:27.458Z,101104.84
2023-04-16T08:06:54.244Z,101120.00
2023-04-16T08:09:22.755Z,101121.34
2023-04-16T08:11:49.479Z,101118.38
2023-04-16T08:14:18.868Z,101117.59
2023-04-16T08:16:45.231Z,101114.59
2023-04-16T08:19:11.784Z,101118.66
2023-04-16T08:21:38.424Z,101132.44
2023-04-16T08:24:04.861Z,101127.56
2023-04-16T08:26:31.217Z,101132.97
2023-04-16T08:28:57.525Z,101131.91
2023-04-16T08:31:24.044Z,101140.88
2023-04-16T08:33:50.358Z,101130.84
2023-04-16T08:36:16.682Z,101146.28
2023-04-16T08:38:42.962Z,101137.88
2023-04-16T08:41:12.402Z,101143.03
2023-04-16T08:43:43.884Z,101146.53
2023-04-16T08:46:11.493Z,101144.34
2023-04-16T08:48:38.721Z,101148.13
2023-04-16T08:51:07.147Z,101146.94
2023-04-16T08:53:36.385Z,101139.44
2023-04-16T08:56:09.717Z,101153.06
2023-04-16T08:58:37.441Z,101148.19
2023-04-16T09:01:03.993Z,101153.59
2023-04-16T09:03:35.665Z,101156.88
2023-04-16T09:06:04.303Z,101157.13
2023-04-16T09:08:31.890Z,101159.03
2023-04-16T09:10:59.312Z,101160.66
2023-04-16T09:13:25.661Z,101157.41
2023-04-16T09:15:53.609Z,101162.28
2023-04-16T09:18:20.412Z,101164.47
2023-04-16T09:20:48.585Z,101159.84
2023-04-16T09:23:14.906Z,101165.47
2023-04-16T09:25:41.220Z,101166.34
2023-04-16T09:28:07.545Z,101173.38
2023-04-16T09:30:33.865Z,101168.50
2023-04-16T09:33:19.844Z,101170.13
2023-04-16T09:35:50.951Z,101177.75
2023-04-16T09:38:18.387Z,101172.56
2023-04-16T09:40:44.907Z,101184.25
2023-04-16T09:43:17.450Z,101174.22
2023-04-16T09:45:54.766Z,101180.16
2023-04-16T09:48:31.938Z,101189.66
2023-04-16T09:50:59.737Z,101189.06
2023-04-16T09:53:31.555Z,101195.59
2023-04-16T09:56:05.252Z,101189.88
2023-04-16T09:58:31.903Z,101197.53
2023-04-16T10:01:12.243Z,101195.31
2023-04-16T10:03:40.412Z,101193.94
2023-04-16T10:06:13.763Z,101204.56
2023-04-16T10:08:53.591Z,101203.47
2023-04-16T10:11:20.685Z,101205.09
2023-04-16T10:13:47.503Z,101211.34
2023-04-16T10:16:13.893Z,101208.34
2023-04-16T10:18:42.244Z,101211.63
2023-04-16T10:21:09.095Z,101213.47
2023-04-16T10:23:35.395Z,101211.31
2023-04-16T10:26:02.308Z,101221.31
2023-04-16T10:28:28.789Z,101217.53
2023-04-16T10:30:57.372Z,101208.34
2023-04-16T10:33:27.757Z,101213.78
2023-04-16T10:36:16.797Z,101218.91
2023-04-16T10:38:53.473Z,101217.53
2023-04-16T10:41:20.414Z,101223.22
2023-04-16T10:43:49.288Z,101227.03
2023-04-16T10:46:19.335Z,101224.84
2023-04-16T10:48:50.260Z,101224.00
2023-04-16T10:51:25.778Z,101227.78
2023-04-16T10:53:53.729Z,101225.09
2023-04-16T10:56:26.681Z,101223.75
2023-04-16T10:58:54.585Z,101222.94
2023-04-16T11:01:29.769Z,101230.00
2023-04-16T11:03:56.375Z,101226.22
2023-04-16T11:06:27.042Z,101226.50
2023-04-16T11:08:55.231Z,101228.91
2023-04-16T11:11:22.877Z,101228.38
2023-04-16T11:13:49.331Z,101227.31
2023-04-16T11:16:16.974Z,101227.22
2023-04-16T11:18:51.387Z,101235.06
2023-04-16T11:21:19.170Z,101239.19
2023-04-16T11:23:49.829Z,101237.56
2023-04-16T11:26:27.559Z,101235.94
2023-04-16T11:28:55.500Z,101233.78
2023-04-16T11:31:22.546Z,101234.34
2023-04-16T11:33:49.396Z,101233.81
2023-04-16T11:36:15.726Z,101234.06
2023-04-16T11:38:42.083Z,101234.88
2023-04-16T11:41:09.331Z,101237.63
2023-04-16T11:43:35.736Z,101233.84
2023-04-16T11:46:10.296Z,101243.88
2023-04-16T11:48:47.663Z,101239.78
2023-04-16T11:51:14.254Z,101242.22
2023-04-16T11:53:54.021Z,101243.03
2023-04-16T11:56:32.128Z,101240.56
2023-04-16T11:59:13.225Z,101244.13
2023-04-16T12:01:41.409Z,101244.66
2023-04-16T12:04:09.029Z,101245.75
2023-04-16T12:06:35.649Z,101238.19
2023-04-16T12:09:22.511Z,101249.56
2023-04-16T12:11:48.832Z,101253.38
2023-04-16T12:14:15.145Z,101252.00
2023-04-16T12:16:41.564Z,101255.53
2023-04-16T12:19:12.286Z,101256.38
2023-04-16T12:21:41.255Z,101244.16
2023-04-16T12:24:09.556Z,101257.97
2023-04-16T12:26:44.187Z,101256.59
2023-04-16T12:29:26.578Z,101264.19
2023-04-16T12:31:54.166Z,101256.03
2023-04-16T12:34:21.562Z,101260.13
2023-04-16T12:37:06.961Z,101263.34
2023-04-16T12:39:33.272Z,101259.00
2023-04-16T12:41:59.572Z,101257.66
2023-04-16T12:44:26.343Z,101262.78
2023-04-16T12:46:52.658Z,101263.53
2023-04-16T12:49:18.958Z,101257.31
2023-04-16T12:51:45.292Z,101252.47
2023-04-16T12:54:11.601Z,101250.28
2023-04-16T12:56:37.970Z,101250.63
2023-04-16T12:59:04.313Z,101255.94
2023-04-16T13:01:30.695Z,101254.84
2023-04-16T13:03:57.281Z,101261.84
2023-04-16T13:06:23.836Z,101255.00
2023-04-16T13:08:50.136Z,101257.97
2023-04-16T13:11:16.485Z,101261.28
2023-04-16T13:13:42.775Z,101261.88
2023-04-16T13:16:09.095Z,101258.59
2023-04-16T13:18:36.152Z,101267.34
2023-04-16T13:21:02.567Z,101257.06
2023-04-16T13:23:29.109Z,101260.84
2023-04-16T13:25:55.421Z,101267.28
2023-04-16T13:28:21.732Z,101256.50
2023-04-16T13:30:48.252Z,101254.63
2023-04-16T13:33:14.555Z,101262.22
2023-04-16T13:35:40.883Z,101258.59
2023-04-16T13:38:07.313Z,101260.25
2023-04-16T13:40:33.634Z,101262.94
2023-04-16T13:42:59.954Z,101255.81
2023-04-16T13:45:26.580Z,101252.72
2023-04-16T13:47:53.045Z,101254.44
2023-04-16T13:50:19.503Z,101251.91
2023-04-16T13:52:45.872Z,101247.25
2023-04-16T13:55:12.194Z,101248.03
2023-04-16T13:57:38.806Z,101245.44
2023-04-16T14:00:05.831Z,101248.50
2023-04-16T14:02:32.250Z,101249.03
2023-04-16T14:04:58.672Z,101241.91
2023-04-16T14:07:24.980Z,101239.75
2023-04-16T14:09:51.295Z,101243.63
2023-04-16T14:12:17.622Z,101238.53
2023-04-16T14:14:43.939Z,101238.66
2023-04-16T14:17:10.368Z,101238.00
2023-04-16T14:19:36.686Z,101241.16
2023-04-16T14:22:02.983Z,101228.44
2023-04-16T14:24:29.335Z,101239.16
2023-04-16T14:26:55.874Z,101235.25
2023-04-16T14:29:22.210Z,101238.44
2023-04-16T14:31:48.547Z,101232.22
2023-04-16T14:34:14.876Z,101228.25
2023-04-16T14:36:41.200Z,101234.16
2023-04-16T14:39:07.645Z,101235.50
2023-04-16T14:41:34.000Z,101229.44
2023-04-16T14:44:00.319Z,101230.50
2023-04-16T14:46:26.614Z,101238.63
2023-04-16T14:48:53.212Z,101226.16
2023-04-16T14:51:19.539Z,101239.75
2023-04-16T14:53:45.863Z,101230.41
2023-04-16T14:56:12.161Z,101232.75
2023-04-16T14:58:39.446Z,101235.53
2023-04-16T15:01:05.906Z,101225.34
2023-04-16T15:03:32.587Z,101232.50
2023-04-16T15:05:59.396Z,101232.53
2023-04-16T15:08:25.768Z,101237.56
2023-04-16T15:10:52.093Z,101229.81
2023-04-16T15:13:18.514Z,101228.66
2023-04-16T15:15:44.889Z,101233.31
2023-04-16T15:18:11.273Z,101232.81
2023-04-16T15:20:37.593Z,101231.47
2023-04-16T15:23:04.084Z,101235.53
2023-04-16T15:25:30.381Z,101236.47
2023-04-16T15:27:56.706Z,101233.63
2023-04-16T15:30:22.999Z,101241.28
2023-04-16T15:32:49.319Z,101250.00
2023-04-16T15:35:15.651Z,101243.97
2023-04-16T15:37:41.974Z,101247.28
2023-04-16T15:40:08.444Z,101246.47
2023-04-16T15:42:34.780Z,101239.59
2023-04-16T15:45:01.106Z,101237.03
2023-04-16T15:47:27.422Z,101243.44
2023-04-16T15:49:53.805Z,101235.94
2023-04-16T15:52:20.255Z,101243.63
2023-04-16T15:54:46.625Z,101241.50
2023-04-16T15:57:12.922Z,101246.94
2023-04-16T15:59:39.226Z,101246.28
2023-04-16T16:02:05.618Z,101240.94
2023-04-16T16:04:32.515Z,101255.03
2023-04-16T16:06:58.958Z,101251.00
2023-04-16T16:09:25.301Z,101252.28
2023-04-16T16:11:55.218Z,101258.38
2023-04-16T16:14:22.325Z,101258.22
2023-04-16T16:16:48.945Z,101255.47
2023-04-16T16:19:15.336Z,101260.31
2023-04-16T16:21:41.643Z,101253.75
2023-04-16T16:24:07.938Z,101257.34
2023-04-16T16:26:34.232Z,101263.13
2023-04-16T16:29:01.954Z,101263.44
2023-04-16T16:31:28.300Z,101269.41
2023-04-16T16:33:54.612Z,101255.94
2023-04-16T16:36:21.464Z,101269.09
2023-04-16T16:38:47.751Z,101263.66
2023-04-16T16:41:14.188Z,101274.91
2023-04-16T16:43:40.480Z,101274.69
2023-04-16T16:46:06.786Z,101277.03
2023-04-16T16:48:33.493Z,101271.91
2023-04-16T16:50:59.791Z,101272.78
2023-04-16T16:53:26.069Z,101271.91
2023-04-16T16:55:52.348Z,101274.84
2023-04-16T16:58:18.652Z,101274.69
2023-04-16T17:00:44.987Z,101278.56
2023-04-16T17:03:11.573Z,101286.34
2023-04-16T17:05:38.059Z,101281.94
2023-04-16T17:08:04.508Z,101276.22
2023-04-16T17:10:30.799Z,101279.78
2023-04-16T17:12:57.110Z,101278.22
2023-04-16T17:15:23.447Z,101279.34
2023-04-16T17:17:49.964Z,101286.63
2023-04-16T17:20:16.392Z,101282.66
2023-04-16T17:22:42.718Z,101276.91
2023-04-16T17:25:09.318Z,101271.84
2023-04-16T17:27:35.671Z,101268.63
2023-04-16T17:30:03.729Z,101275.09
2023-04-16T17:32:30.715Z,101270.56
2023-04-16T17:34:57.223Z,101269.97
2023-04-16T17:37:23.568Z,101272.16
2023-04-16T17:39:50.008Z,101278.97
2023-04-16T17:42:16.399Z,101280.41
2023-04-16T17:44:42.851Z,101287.66
2023-04-16T17:47:09.224Z,101288.22
2023-04-16T17:49:35.529Z,101293.16
2023-04-16T17:52:01.942Z,101288.03
2023-04-16T17:54:28.384Z,101292.91
2023-04-16T17:56:54.688Z,101295.41
2023-04-16T17:59:21.648Z,101307.94
2023-04-16T18:01:48.036Z,101307.16
2023-04-16T18:04:14.675Z,101304.97
2023-04-16T18:06:41.389Z,101306.34
2023-04-16T18:09:07.716Z,101307.97
2023-04-16T18:11:34.009Z,101317.66
2023-04-16T18:14:00.315Z,101315.28
2023-04-16T18:16:26.765Z,101314.50
2023-04-16T18:18:53.120Z,101309.31
2023-04-16T18:21:19.758Z,101314.75
2023-04-16T18:23:46.084Z,101323.47
2023-04-16T18:26:12.849Z,101322.16
2023-04-16T18:28:39.216Z,101331.66
2023-04-16T18:31:05.589Z,101337.13
2023-04-16T18:36:01.723Z,101337.97
2023-04-16T18:38:28.171Z,101336.06
2023-04-16T18:40:54.477Z,101347.19
2023-04-16T18:43:20.790Z,101345.56
2023-04-16T18:45:47.091Z,101343.41
2023-04-16T18:48:13.412Z,101345.00
2023-04-16T18:50:39.706Z,101353.16
2023-04-16T18:53:06.179Z,101344.22
2023-04-16T18:55:32.488Z,101354.25
2023-04-16T18:57:58.802Z,101353.16
2023-04-16T19:00:25.249Z,101356.97
2023-04-16T19:02:51.651Z,101361.31
2023-04-16T19:05:18.123Z,101361.88
2023-04-16T19:07:44.425Z,101360.78
2023-04-16T19:10:10.848Z,101359.69
2023-04-16T19:12:37.167Z,101360.22
2023-04-16T19:15:04.578Z,101358.06
2023-04-16T19:17:30.888Z,101365.41
2023-04-16T19:19:57.344Z,101359.69
2023-04-16T19:22:23.672Z,101376.53
2023-04-16T19:24:49.975Z,101372.19
2023-04-16T19:27:16.304Z,101373.28
2023-04-16T19:29:42.603Z,101374.91
2023-04-16T19:32:08.997Z,101374.06
2023-04-16T19:34:35.345Z,101368.09
2023-04-16T19:37:01.644Z,101379.78
2023-04-16T19:39:28.071Z,101381.41
2023-04-16T19:41:54.360Z,101372.47
2023-04-16T19:44:20.695Z,101381.13
2023-04-16T19:46:46.992Z,101377.63
2023-04-16T19:49:13.541Z,101374.06
2023-04-16T19:51:39.958Z,101379.25
2023-04-16T19:54:06.275Z,101374.91
2023-04-16T19:56:32.627Z,101377.88
2023-04-16T19:58:58.927Z,101370.03
2023-04-16T20:01:25.253Z,101375.97
2023-04-16T20:03:51.627Z,101380.31
2023-04-16T20:06:17.971Z,101383.56
2023-04-16T20:08:44.266Z,101383.28
2023-04-16T20:11:10.636Z,101387.38
2023-04-16T20:13:36.939Z,101390.88
2023-04-16T20:16:03.532Z,101384.94
2023-04-16T20:18:29.844Z,101385.50
2023-04-16T20:20:56.156Z,101377.06
2023-04-16T20:23:22.453Z,101383.84
2023-04-16T20:25:48.780Z,101389.00
2023-04-16T20:28:15.068Z,101387.38
2023-04-16T20:30:41.605Z,101393.84
2023-04-16T20:33:08.504Z,101393.34
2023-04-16T20:35:34.977Z,101394.38
2023-04-16T20:38:01.376Z,101395.19
2023-04-16T20:40:28.072Z,101384.94
2023-04-16T20:42:54.381Z,101398.72
2023-04-16T20:45:20.673Z,101396.00
2023-04-16T20:47:47.074Z,101394.13
2023-04-16T20:50:13.535Z,101390.56
2023-04-16T20:52:39.847Z,101390.25
2023-04-16T20:55:06.814Z,101396.53
2023-04-16T20:57:33.115Z,101402.31
2023-04-16T20:59:59.419Z,101399.88
2023-04-16T21:02:26.011Z,101400.81
2023-04-16T21:04:52.538Z,101400.00
2023-04-16T21:07:18.901Z,101404.06
2023-04-16T21:09:45.216Z,101406.34
2023-04-16T21:12:11.511Z,101410.06
2023-04-16T21:14:37.818Z,101401.97
2023-04-16T21:17:04.114Z,101411.19
2023-04-16T21:19:30.511Z,101415.25
2023-04-16T21:21:56.811Z,101412.59
2023-04-16T21:24:23.113Z,101411.22
2023-04-16T21:26:49.451Z,101411.84
2023-04-16T21:29:15.773Z,101417.31
2023-04-16T21:31:42.128Z,101419.00
2023-04-16T21:34:08.468Z,101416.41
2023-04-16T21:36:34.777Z,101416.38
2023-04-16T21:39:01.085Z,101415.88
2023-04-16T21:41:27.554Z,101419.84
2023-04-16T21:43:53.898Z,101417.06
2023-04-16T21:46:20.245Z,101420.53
2023-04-16T21:48:46.542Z,101424.41
2023-04-16T21:51:12.849Z,101424.97
2023-04-16T21:53:39.187Z,101422.84
2023-04-16T21:56:06.304Z,101418.47
2023-04-16T21:58:32.611Z,101422.63
2023-04-16T22:00:58.920Z,101419.38
2023-04-16T22:03:25.367Z,101425.09
2023-04-16T22:05:57.571Z,101416.69
2023-04-16T22:08:25.162Z,101415.63
2023-04-16T22:10:51.616Z,101421.59
2023-04-16T22:13:18.019Z,101414.28
2023-04-16T22:15:44.520Z,101410.91
2023-04-16T22:18:10.825Z,101418.38
2023-04-16T22:20:37.149Z,101420.31
2023-04-16T22:23:03.445Z,101417.84
2023-04-16T22:25:29.782Z,101419.13
2023-04-16T22:27:56.114Z,101419.13
2023-04-16T22:30:22.469Z,101423.19
2023-04-16T22:32:48.894Z,101419.28
2023-04-16T22:35:15.342Z,101427.28
2023-04-16T22:37:41.666Z,101427.47
2023-04-16T22:40:08.656Z,101427.28
2023-04-16T22:42:35.233Z,101422.75
2023-04-16T22:45:01.555Z,101425.28
2023-04-16T22:47:27.953Z,101429.75
2023-04-16T22:49:54.337Z,101428.19
2023-04-16T22:52:20.636Z,101424.47
2023-04-16T22:54:46.934Z,101421.09
2023-04-16T22:57:13.255Z,101419.44
2023-04-16T22:59:39.546Z,101422.47
2023-04-16T23:02:05.951Z,101419.53
2023-04-16T23:04:32.481Z,101416.25
2023-04-16T23:06:58.981Z,101416.69
2023-04-16T23:09:25.283Z,101416.78
2023-04-16T23:11:51.631Z,101416.47
2023-04-16T23:14:17.971Z,101425.09
2023-04-16T23:16:44.279Z,101424.25
2023-04-16T23:19:10.831Z,101428.63
2023-04-16T23:21:37.350Z,101425.63
2023-04-16T23:24:03.869Z,101423.19
2023-04-16T23:26:30.165Z,101429.66
2023-04-16T23:28:56.464Z,101426.78
2023-04-16T23:31:22.803Z,101427.31
2023-04-16T23:33:49.180Z,101432.69
2023-04-16T23:36:15.489Z,101420.59
2023-04-16T23:38:41.865Z,101425.50
2023-04-16T23:41:08.177Z,101431.56
2023-04-16T23:43:34.482Z,101423.41
2023-04-16T23:46:00.951Z,101427.16
2023-04-16T23:48:27.734Z,101421.00
2023-04-16T23:50:54.165Z,101423.22
2023-04-16T23:53:20.492Z,101430.09
2023-04-16T23:55:46.796Z,101424.44
2023-04-16T23:58:13.108Z,101427.06
